sensor_id;sensor_type;location;lat;lon;timestamp;P1;durP1;ratioP1;P2;durP2;ratioP2
45730;SDS011;31440;48.584;13.460;2023-02-22T00:01:48;8.82;;;5.65;;
45730;SDS011;31440;48.584;13.460;2023-02-22T00:05:14;9.38;;;5.07;;
45730;SDS011;31440;48.584;13.460;2023-02-22T00:08:24;10.05;;;6.05;;
45730;SDS011;31440;48.584;13.460;2023-02-22T00:11:33;7.53;;;6.22;;
45730;SDS011;31440;48.584;13.460;2023-02-22T00:14:38;9.27;;;5.78;;
45730;SDS011;31440;48.584;13.460;2023-02-22T00:17:43;8.25;;;5.88;;
45730;SDS011;31440;48.584;13.460;2023-02-22T00:20:48;8.20;;;5.88;;
45730;SDS011;31440;48.584;13.460;2023-02-22T00:23:53;9.80;;;6.55;;
45730;SDS011;31440;48.584;13.460;2023-02-22T00:26:57;9.10;;;6.72;;
45730;SDS011;31440;48.584;13.460;2023-02-22T00:30:06;8.95;;;6.78;;
45730;SDS011;31440;48.584;13.460;2023-02-22T00:33:13;8.68;;;5.78;;
45730;SDS011;31440;48.584;13.460;2023-02-22T00:36:18;8.15;;;5.40;;
45730;SDS011;31440;48.584;13.460;2023-02-22T00:39:23;9.48;;;6.38;;
45730;SDS011;31440;48.584;13.460;2023-02-22T00:42:27;9.63;;;6.00;;
45730;SDS011;31440;48.584;13.460;2023-02-22T00:45:32;11.05;;;6.93;;
45730;SDS011;31440;48.584;13.460;2023-02-22T00:48:38;10.60;;;6.65;;
45730;SDS011;31440;48.584;13.460;2023-02-22T00:51:42;11.13;;;7.55;;
45730;SDS011;31440;48.584;13.460;2023-02-22T00:54:47;13.85;;;7.82;;
45730;SDS011;31440;48.584;13.460;2023-02-22T00:57:53;16.45;;;7.55;;
45730;SDS011;31440;48.584;13.460;2023-02-22T01:00:58;10.13;;;6.90;;
45730;SDS011;31440;48.584;13.460;2023-02-22T01:04:03;14.93;;;8.60;;
45730;SDS011;31440;48.584;13.460;2023-02-22T01:07:08;12.10;;;7.88;;
45730;SDS011;31440;48.584;13.460;2023-02-22T01:10:13;12.10;;;8.20;;
45730;SDS011;31440;48.584;13.460;2023-02-22T01:13:18;11.10;;;7.93;;
45730;SDS011;31440;48.584;13.460;2023-02-22T01:16:23;11.90;;;7.03;;
45730;SDS011;31440;48.584;13.460;2023-02-22T01:19:28;8.50;;;5.78;;
45730;SDS011;31440;48.584;13.460;2023-02-22T01:22:33;7.45;;;5.63;;
45730;SDS011;31440;48.584;13.460;2023-02-22T01:25:37;9.00;;;5.15;;
45730;SDS011;31440;48.584;13.460;2023-02-22T01:28:42;8.85;;;5.78;;
45730;SDS011;31440;48.584;13.460;2023-02-22T01:31:53;8.48;;;5.57;;
45730;SDS011;31440;48.584;13.460;2023-02-22T01:34:59;10.23;;;5.88;;
45730;SDS011;31440;48.584;13.460;2023-02-22T01:38:03;8.38;;;6.05;;
45730;SDS011;31440;48.584;13.460;2023-02-22T01:41:08;9.38;;;5.90;;
45730;SDS011;31440;48.584;13.460;2023-02-22T01:44:17;11.70;;;6.35;;
45730;SDS011;31440;48.584;13.460;2023-02-22T01:47:22;8.27;;;6.75;;
45730;SDS011;31440;48.584;13.460;2023-02-22T01:50:27;9.02;;;6.65;;
45730;SDS011;31440;48.584;13.460;2023-02-22T01:53:46;7.32;;;5.68;;
45730;SDS011;31440;48.584;13.460;2023-02-22T01:57:00;9.18;;;6.35;;
45730;SDS011;31440;48.584;13.460;2023-02-22T02:00:11;9.98;;;6.95;;
45730;SDS011;31440;48.584;13.460;2023-02-22T02:03:23;13.57;;;7.75;;
45730;SDS011;31440;48.584;13.460;2023-02-22T02:06:32;8.73;;;6.50;;
45730;SDS011;31440;48.584;13.460;2023-02-22T02:09:42;6.80;;;5.75;;
45730;SDS011;31440;48.584;13.460;2023-02-22T02:12:55;10.13;;;6.97;;
45730;SDS011;31440;48.584;13.460;2023-02-22T02:16:01;9.18;;;6.35;;
45730;SDS011;31440;48.584;13.460;2023-02-22T02:19:11;9.63;;;6.70;;
45730;SDS011;31440;48.584;13.460;2023-02-22T02:36:19;16.50;;;6.70;;
45730;SDS011;31440;48.584;13.460;2023-02-22T02:39:40;53.05;;;9.15;;
45730;SDS011;31440;48.584;13.460;2023-02-22T02:43:07;66.55;;;10.23;;
45730;SDS011;31440;48.584;13.460;2023-02-22T02:46:43;20.95;;;7.25;;
45730;SDS011;31440;48.584;13.460;2023-02-22T02:49:59;84.22;;;10.20;;
45730;SDS011;31440;48.584;13.460;2023-02-22T02:53:15;259.13;;;19.90;;
45730;SDS011;31440;48.584;13.460;2023-02-22T02:56:26;72.20;;;9.53;;
45730;SDS011;31440;48.584;13.460;2023-02-22T02:59:35;77.82;;;8.68;;
45730;SDS011;31440;48.584;13.460;2023-02-22T03:02:43;140.75;;;13.05;;
45730;SDS011;31440;48.584;13.460;2023-02-22T03:09:22;71.38;;;8.82;;
45730;SDS011;31440;48.584;13.460;2023-02-22T03:12:42;115.35;;;12.10;;
45730;SDS011;31440;48.584;13.460;2023-02-22T03:19:46;52.78;;;9.13;;
45730;SDS011;31440;48.584;13.460;2023-02-22T03:23:09;82.30;;;9.32;;
45730;SDS011;31440;48.584;13.460;2023-02-22T03:26:33;48.50;;;8.32;;
45730;SDS011;31440;48.584;13.460;2023-02-22T03:29:41;18.88;;;7.07;;
45730;SDS011;31440;48.584;13.460;2023-02-22T03:32:51;19.55;;;6.18;;
45730;SDS011;31440;48.584;13.460;2023-02-22T03:36:04;26.42;;;6.45;;
45730;SDS011;31440;48.584;13.460;2023-02-22T03:42:23;160.23;;;14.50;;
45730;SDS011;31440;48.584;13.460;2023-02-22T03:45:32;89.20;;;8.85;;
45730;SDS011;31440;48.584;13.460;2023-02-22T03:48:49;207.43;;;15.73;;
45730;SDS011;31440;48.584;13.460;2023-02-22T03:52:00;21.25;;;6.18;;
45730;SDS011;31440;48.584;13.460;2023-02-22T03:55:09;96.10;;;9.50;;
45730;SDS011;31440;48.584;13.460;2023-02-22T03:58:16;138.05;;;14.00;;
45730;SDS011;31440;48.584;13.460;2023-02-22T04:01:23;90.20;;;8.90;;
45730;SDS011;31440;48.584;13.460;2023-02-22T04:04:28;22.35;;;5.57;;
45730;SDS011;31440;48.584;13.460;2023-02-22T04:07:33;15.68;;;5.78;;
45730;SDS011;31440;48.584;13.460;2023-02-22T04:10:38;22.00;;;6.43;;
45730;SDS011;31440;48.584;13.460;2023-02-22T04:13:44;66.55;;;8.23;;
45730;SDS011;31440;48.584;13.460;2023-02-22T04:16:49;115.38;;;10.77;;
45730;SDS011;31440;48.584;13.460;2023-02-22T04:19:54;81.72;;;7.70;;
45730;SDS011;31440;48.584;13.460;2023-02-22T04:23:00;96.40;;;11.13;;
45730;SDS011;31440;48.584;13.460;2023-02-22T04:26:05;67.05;;;8.95;;
45730;SDS011;31440;48.584;13.460;2023-02-22T04:29:11;8.32;;;5.13;;
45730;SDS011;31440;48.584;13.460;2023-02-22T04:32:17;14.15;;;4.82;;
45730;SDS011;31440;48.584;13.460;2023-02-22T04:35:22;11.82;;;4.50;;
45730;SDS011;31440;48.584;13.460;2023-02-22T04:38:27;10.77;;;5.03;;
45730;SDS011;31440;48.584;13.460;2023-02-22T04:41:34;14.55;;;4.60;;
45730;SDS011;31440;48.584;13.460;2023-02-22T04:44:39;12.20;;;4.70;;
45730;SDS011;31440;48.584;13.460;2023-02-22T04:47:44;17.77;;;5.22;;
45730;SDS011;31440;48.584;13.460;2023-02-22T04:50:49;20.33;;;5.13;;
45730;SDS011;31440;48.584;13.460;2023-02-22T04:53:55;27.63;;;5.32;;
45730;SDS011;31440;48.584;13.460;2023-02-22T04:57:01;141.32;;;12.07;;
45730;SDS011;31440;48.584;13.460;2023-02-22T05:00:06;65.97;;;7.05;;
45730;SDS011;31440;48.584;13.460;2023-02-22T05:03:14;41.90;;;6.43;;
45730;SDS011;31440;48.584;13.460;2023-02-22T05:06:18;50.83;;;6.10;;
45730;SDS011;31440;48.584;13.460;2023-02-22T05:09:23;31.45;;;5.15;;
45730;SDS011;31440;48.584;13.460;2023-02-22T05:12:27;58.42;;;6.97;;
45730;SDS011;31440;48.584;13.460;2023-02-22T05:15:32;84.85;;;8.05;;
45730;SDS011;31440;48.584;13.460;2023-02-22T05:18:37;13.02;;;5.50;;
45730;SDS011;31440;48.584;13.460;2023-02-22T05:21:42;33.42;;;6.47;;
45730;SDS011;31440;48.584;13.460;2023-02-22T05:24:46;15.95;;;5.40;;
45730;SDS011;31440;48.584;13.460;2023-02-22T05:27:52;31.00;;;6.30;;
45730;SDS011;31440;48.584;13.460;2023-02-22T05:30:58;38.78;;;6.20;;
45730;SDS011;31440;48.584;13.460;2023-02-22T05:34:03;33.20;;;6.60;;
45730;SDS011;31440;48.584;13.460;2023-02-22T05:37:08;13.45;;;5.38;;
45730;SDS011;31440;48.584;13.460;2023-02-22T05:40:12;131.63;;;11.48;;
45730;SDS011;31440;48.584;13.460;2023-02-22T05:43:18;52.08;;;6.93;;
45730;SDS011;31440;48.584;13.460;2023-02-22T05:46:22;35.80;;;5.75;;
45730;SDS011;31440;48.584;13.460;2023-02-22T05:49:27;58.47;;;7.82;;
45730;SDS011;31440;48.584;13.460;2023-02-22T05:52:31;25.20;;;5.47;;
45730;SDS011;31440;48.584;13.460;2023-02-22T05:55:36;43.42;;;6.90;;
45730;SDS011;31440;48.584;13.460;2023-02-22T05:58:40;59.70;;;7.10;;
45730;SDS011;31440;48.584;13.460;2023-02-22T06:01:45;15.75;;;4.75;;
45730;SDS011;31440;48.584;13.460;2023-02-22T06:04:50;50.08;;;6.80;;
45730;SDS011;31440;48.584;13.460;2023-02-22T06:07:55;39.67;;;7.90;;
45730;SDS011;31440;48.584;13.460;2023-02-22T06:11:00;18.65;;;6.45;;
45730;SDS011;31440;48.584;13.460;2023-02-22T06:14:05;16.42;;;5.82;;
45730;SDS011;31440;48.584;13.460;2023-02-22T06:17:10;17.02;;;6.20;;
45730;SDS011;31440;48.584;13.460;2023-02-22T06:20:15;28.65;;;6.13;;
45730;SDS011;31440;48.584;13.460;2023-02-22T06:23:23;26.13;;;5.82;;
45730;SDS011;31440;48.584;13.460;2023-02-22T06:26:28;20.67;;;5.82;;
45730;SDS011;31440;48.584;13.460;2023-02-22T06:29:33;11.68;;;5.38;;
45730;SDS011;31440;48.584;13.460;2023-02-22T06:32:38;29.23;;;6.40;;
45730;SDS011;31440;48.584;13.460;2023-02-22T06:35:42;17.90;;;6.60;;
45730;SDS011;31440;48.584;13.460;2023-02-22T06:38:49;10.90;;;6.03;;
45730;SDS011;31440;48.584;13.460;2023-02-22T06:41:54;17.85;;;5.80;;
45730;SDS011;31440;48.584;13.460;2023-02-22T06:45:00;17.95;;;5.22;;
45730;SDS011;31440;48.584;13.460;2023-02-22T06:48:05;16.67;;;5.45;;
45730;SDS011;31440;48.584;13.460;2023-02-22T06:51:10;28.80;;;6.20;;
45730;SDS011;31440;48.584;13.460;2023-02-22T06:54:14;22.38;;;5.68;;
45730;SDS011;31440;48.584;13.460;2023-02-22T06:57:19;16.83;;;5.57;;
45730;SDS011;31440;48.584;13.460;2023-02-22T07:00:24;12.43;;;5.30;;
45730;SDS011;31440;48.584;13.460;2023-02-22T07:03:30;13.30;;;5.35;;
45730;SDS011;31440;48.584;13.460;2023-02-22T07:06:34;14.82;;;6.53;;
45730;SDS011;31440;48.584;13.460;2023-02-22T07:09:39;10.43;;;6.55;;
45730;SDS011;31440;48.584;13.460;2023-02-22T07:12:44;8.25;;;5.53;;
45730;SDS011;31440;48.584;13.460;2023-02-22T07:15:48;10.82;;;6.20;;
45730;SDS011;31440;48.584;13.460;2023-02-22T07:18:53;8.93;;;6.05;;
45730;SDS011;31440;48.584;13.460;2023-02-22T07:21:58;7.15;;;5.43;;
45730;SDS011;31440;48.584;13.460;2023-02-22T07:25:03;11.32;;;7.07;;
45730;SDS011;31440;48.584;13.460;2023-02-22T07:28:09;8.88;;;6.43;;
45730;SDS011;31440;48.584;13.460;2023-02-22T07:31:14;15.55;;;8.93;;
45730;SDS011;31440;48.584;13.460;2023-02-22T07:34:19;15.10;;;9.45;;
45730;SDS011;31440;48.584;13.460;2023-02-22T07:37:24;13.43;;;8.77;;
45730;SDS011;31440;48.584;13.460;2023-02-22T07:40:29;11.55;;;8.38;;
45730;SDS011;31440;48.584;13.460;2023-02-22T07:43:33;15.15;;;9.70;;
45730;SDS011;31440;48.584;13.460;2023-02-22T07:46:40;17.40;;;10.45;;
45730;SDS011;31440;48.584;13.460;2023-02-22T07:49:44;13.65;;;10.18;;
45730;SDS011;31440;48.584;13.460;2023-02-22T07:52:49;12.65;;;9.38;;
45730;SDS011;31440;48.584;13.460;2023-02-22T07:55:56;14.52;;;8.50;;
45730;SDS011;31440;48.584;13.460;2023-02-22T07:59:01;9.65;;;7.97;;
45730;SDS011;31440;48.584;13.460;2023-02-22T08:02:08;11.18;;;7.18;;
45730;SDS011;31440;48.584;13.460;2023-02-22T08:05:19;11.98;;;6.90;;
45730;SDS011;31440;48.584;13.460;2023-02-22T08:08:26;8.00;;;5.43;;
45730;SDS011;31440;48.584;13.460;2023-02-22T08:11:31;6.75;;;4.90;;
45730;SDS011;31440;48.584;13.460;2023-02-22T08:14:35;8.20;;;5.57;;
45730;SDS011;31440;48.584;13.460;2023-02-22T08:17:40;6.57;;;4.82;;
45730;SDS011;31440;48.584;13.460;2023-02-22T08:20:45;6.88;;;4.30;;
45730;SDS011;31440;48.584;13.460;2023-02-22T08:23:51;5.25;;;4.10;;
45730;SDS011;31440;48.584;13.460;2023-02-22T08:26:57;5.63;;;4.20;;
45730;SDS011;31440;48.584;13.460;2023-02-22T08:30:02;5.55;;;3.83;;
45730;SDS011;31440;48.584;13.460;2023-02-22T08:33:07;7.35;;;4.55;;
45730;SDS011;31440;48.584;13.460;2023-02-22T08:36:14;6.65;;;4.80;;
45730;SDS011;31440;48.584;13.460;2023-02-22T08:39:19;5.03;;;3.97;;
45730;SDS011;31440;48.584;13.460;2023-02-22T08:42:24;6.95;;;4.43;;
45730;SDS011;31440;48.584;13.460;2023-02-22T08:45:29;5.22;;;4.20;;
45730;SDS011;31440;48.584;13.460;2023-02-22T08:48:33;6.43;;;5.07;;
45730;SDS011;31440;48.584;13.460;2023-02-22T08:51:38;8.15;;;5.43;;
45730;SDS011;31440;48.584;13.460;2023-02-22T08:54:44;9.60;;;6.00;;
45730;SDS011;31440;48.584;13.460;2023-02-22T08:57:48;6.90;;;5.15;;
45730;SDS011;31440;48.584;13.460;2023-02-22T09:00:53;6.90;;;4.95;;
45730;SDS011;31440;48.584;13.460;2023-02-22T09:03:58;7.85;;;5.32;;
45730;SDS011;31440;48.584;13.460;2023-02-22T09:07:26;6.75;;;4.80;;
45730;SDS011;31440;48.584;13.460;2023-02-22T09:10:32;7.50;;;4.75;;
45730;SDS011;31440;48.584;13.460;2023-02-22T09:13:38;7.95;;;4.65;;
45730;SDS011;31440;48.584;13.460;2023-02-22T09:16:43;5.80;;;4.55;;
45730;SDS011;31440;48.584;13.460;2023-02-22T09:19:48;6.30;;;4.88;;
45730;SDS011;31440;48.584;13.460;2023-02-22T09:22:53;6.82;;;5.65;;
45730;SDS011;31440;48.584;13.460;2023-02-22T09:25:58;4.82;;;3.92;;
45730;SDS011;31440;48.584;13.460;2023-02-22T09:29:06;6.50;;;4.53;;
45730;SDS011;31440;48.584;13.460;2023-02-22T09:32:14;7.93;;;5.00;;
45730;SDS011;31440;48.584;13.460;2023-02-22T09:35:22;5.75;;;4.50;;
45730;SDS011;31440;48.584;13.460;2023-02-22T09:38:30;5.18;;;4.00;;
45730;SDS011;31440;48.584;13.460;2023-02-22T09:41:38;7.25;;;4.88;;
45730;SDS011;31440;48.584;13.460;2023-02-22T09:44:47;5.60;;;4.15;;
45730;SDS011;31440;48.584;13.460;2023-02-22T09:48:02;6.50;;;4.18;;
45730;SDS011;31440;48.584;13.460;2023-02-22T09:51:26;5.18;;;3.60;;
45730;SDS011;31440;48.584;13.460;2023-02-22T10:01:38;5.60;;;3.85;;
45730;SDS011;31440;48.584;13.460;2023-02-22T10:04:50;4.72;;;3.42;;
45730;SDS011;31440;48.584;13.460;2023-02-22T10:11:17;5.45;;;3.88;;
45730;SDS011;31440;48.584;13.460;2023-02-22T10:14:53;4.78;;;3.22;;
45730;SDS011;31440;48.584;13.460;2023-02-22T10:22:14;4.93;;;3.40;;
45730;SDS011;31440;48.584;13.460;2023-02-22T10:25:40;5.00;;;3.17;;
45730;SDS011;31440;48.584;13.460;2023-02-22T10:28:51;3.97;;;2.85;;
45730;SDS011;31440;48.584;13.460;2023-02-22T10:32:01;4.60;;;3.72;;
45730;SDS011;31440;48.584;13.460;2023-02-22T10:35:16;3.55;;;3.20;;
45730;SDS011;31440;48.584;13.460;2023-02-22T10:38:26;3.17;;;2.10;;
45730;SDS011;31440;48.584;13.460;2023-02-22T10:41:48;2.25;;;2.00;;
45730;SDS011;31440;48.584;13.460;2023-02-22T10:44:58;2.97;;;1.95;;
45730;SDS011;31440;48.584;13.460;2023-02-22T10:48:10;3.03;;;1.63;;
45730;SDS011;31440;48.584;13.460;2023-02-22T10:51:18;1.88;;;1.67;;
45730;SDS011;31440;48.584;13.460;2023-02-22T10:54:24;1.40;;;1.30;;
45730;SDS011;31440;48.584;13.460;2023-02-22T10:57:34;4.78;;;1.50;;
45730;SDS011;31440;48.584;13.460;2023-02-22T11:00:40;2.45;;;1.92;;
45730;SDS011;31440;48.584;13.460;2023-02-22T11:03:54;1.27;;;1.17;;
45730;SDS011;31440;48.584;13.460;2023-02-22T11:07:15;1.33;;;1.23;;
45730;SDS011;31440;48.584;13.460;2023-02-22T11:10:33;3.33;;;2.40;;
45730;SDS011;31440;48.584;13.460;2023-02-22T11:13:41;4.07;;;2.42;;
45730;SDS011;31440;48.584;13.460;2023-02-22T11:16:48;3.13;;;2.40;;
45730;SDS011;31440;48.584;13.460;2023-02-22T11:19:56;3.25;;;2.38;;
45730;SDS011;31440;48.584;13.460;2023-02-22T11:23:03;4.28;;;2.38;;
45730;SDS011;31440;48.584;13.460;2023-02-22T11:26:12;2.60;;;2.22;;
45730;SDS011;31440;48.584;13.460;2023-02-22T11:29:23;2.17;;;1.75;;
45730;SDS011;31440;48.584;13.460;2023-02-22T11:32:31;2.50;;;2.00;;
45730;SDS011;31440;48.584;13.460;2023-02-22T11:35:38;2.72;;;1.70;;
45730;SDS011;31440;48.584;13.460;2023-02-22T11:38:54;3.03;;;1.83;;
45730;SDS011;31440;48.584;13.460;2023-02-22T11:42:12;1.67;;;1.30;;
45730;SDS011;31440;48.584;13.460;2023-02-22T11:45:26;1.60;;;1.50;;
45730;SDS011;31440;48.584;13.460;2023-02-22T11:48:31;2.67;;;1.63;;
45730;SDS011;31440;48.584;13.460;2023-02-22T11:51:55;4.47;;;1.63;;
45730;SDS011;31440;48.584;13.460;2023-02-22T11:55:21;2.65;;;1.33;;
45730;SDS011;31440;48.584;13.460;2023-02-22T12:01:57;1.85;;;1.63;;
45730;SDS011;31440;48.584;13.460;2023-02-22T12:08:33;3.20;;;1.85;;
45730;SDS011;31440;48.584;13.460;2023-02-22T12:18:52;2.28;;;1.55;;
45730;SDS011;31440;48.584;13.460;2023-02-22T12:28:31;2.10;;;1.63;;
45730;SDS011;31440;48.584;13.460;2023-02-22T12:31:41;2.22;;;1.60;;
45730;SDS011;31440;48.584;13.460;2023-02-22T12:35:03;2.35;;;1.67;;
45730;SDS011;31440;48.584;13.460;2023-02-22T12:38:36;5.88;;;1.92;;
45730;SDS011;31440;48.584;13.460;2023-02-22T12:41:47;2.67;;;1.40;;
45730;SDS011;31440;48.584;13.460;2023-02-22T12:45:10;3.05;;;1.92;;
45730;SDS011;31440;48.584;13.460;2023-02-22T12:48:47;1.95;;;1.52;;
45730;SDS011;31440;48.584;13.460;2023-02-22T12:52:00;11.87;;;2.33;;
45730;SDS011;31440;48.584;13.460;2023-02-22T12:55:27;3.72;;;1.42;;
45730;SDS011;31440;48.584;13.460;2023-02-22T12:58:42;2.50;;;1.55;;
45730;SDS011;31440;48.584;13.460;2023-02-22T13:02:11;2.67;;;1.85;;
45730;SDS011;31440;48.584;13.460;2023-02-22T13:05:19;1.98;;;1.70;;
45730;SDS011;31440;48.584;13.460;2023-02-22T13:15:11;4.18;;;2.22;;
45730;SDS011;31440;48.584;13.460;2023-02-22T13:18:43;4.57;;;2.13;;
45730;SDS011;31440;48.584;13.460;2023-02-22T13:22:06;2.45;;;1.98;;
45730;SDS011;31440;48.584;13.460;2023-02-22T13:28:37;3.45;;;2.22;;
45730;SDS011;31440;48.584;13.460;2023-02-22T13:35:34;2.95;;;1.50;;
45730;SDS011;31440;48.584;13.460;2023-02-22T13:39:02;2.85;;;1.73;;
45730;SDS011;31440;48.584;13.460;2023-02-22T13:42:33;2.80;;;1.48;;
45730;SDS011;31440;48.584;13.460;2023-02-22T13:49:38;2.10;;;1.75;;
45730;SDS011;31440;48.584;13.460;2023-02-22T13:53:13;1.40;;;1.30;;
45730;SDS011;31440;48.584;13.460;2023-02-22T13:56:23;1.92;;;1.20;;
45730;SDS011;31440;48.584;13.460;2023-02-22T13:59:33;1.35;;;1.10;;
45730;SDS011;31440;48.584;13.460;2023-02-22T14:02:59;2.22;;;1.40;;
45730;SDS011;31440;48.584;13.460;2023-02-22T14:06:34;1.27;;;0.95;;
45730;SDS011;31440;48.584;13.460;2023-02-22T14:09:46;1.20;;;1.10;;
45730;SDS011;31440;48.584;13.460;2023-02-22T14:12:52;1.20;;;1.10;;
45730;SDS011;31440;48.584;13.460;2023-02-22T14:22:13;3.13;;;1.30;;
45730;SDS011;31440;48.584;13.460;2023-02-22T14:25:28;1.73;;;1.15;;
45730;SDS011;31440;48.584;13.460;2023-02-22T14:28:50;1.20;;;1.13;;
45730;SDS011;31440;48.584;13.460;2023-02-22T14:32:07;3.35;;;1.50;;
45730;SDS011;31440;48.584;13.460;2023-02-22T14:35:14;3.53;;;1.55;;
45730;SDS011;31440;48.584;13.460;2023-02-22T14:38:33;5.35;;;1.70;;
45730;SDS011;31440;48.584;13.460;2023-02-22T14:41:39;1.50;;;1.20;;
45730;SDS011;31440;48.584;13.460;2023-02-22T14:44:58;3.42;;;0.98;;
45730;SDS011;31440;48.584;13.460;2023-02-22T14:51:28;3.90;;;1.58;;
45730;SDS011;31440;48.584;13.460;2023-02-22T14:54:56;1.40;;;1.20;;
45730;SDS011;31440;48.584;13.460;2023-02-22T14:58:12;5.55;;;1.23;;
45730;SDS011;31440;48.584;13.460;2023-02-22T15:01:30;4.80;;;1.50;;
45730;SDS011;31440;48.584;13.460;2023-02-22T15:04:56;4.85;;;1.30;;
45730;SDS011;31440;48.584;13.460;2023-02-22T15:08:02;2.10;;;1.10;;
45730;SDS011;31440;48.584;13.460;2023-02-22T15:11:23;1.35;;;1.10;;
45730;SDS011;31440;48.584;13.460;2023-02-22T15:14:34;3.88;;;1.65;;
45730;SDS011;31440;48.584;13.460;2023-02-22T15:17:43;2.25;;;1.92;;
45730;SDS011;31440;48.584;13.460;2023-02-22T15:20:50;1.92;;;1.38;;
45730;SDS011;31440;48.584;13.460;2023-02-22T15:24:00;1.88;;;1.10;;
45730;SDS011;31440;48.584;13.460;2023-02-22T15:27:11;1.65;;;1.17;;
45730;SDS011;31440;48.584;13.460;2023-02-22T15:30:24;1.27;;;0.90;;
45730;SDS011;31440;48.584;13.460;2023-02-22T15:33:31;1.33;;;1.23;;
45730;SDS011;31440;48.584;13.460;2023-02-22T15:36:41;3.42;;;1.30;;
45730;SDS011;31440;48.584;13.460;2023-02-22T15:39:48;3.38;;;1.63;;
45730;SDS011;31440;48.584;13.460;2023-02-22T15:43:02;2.85;;;1.17;;
45730;SDS011;31440;48.584;13.460;2023-02-22T15:46:12;1.55;;;1.17;;
45730;SDS011;31440;48.584;13.460;2023-02-22T15:49:18;2.38;;;1.45;;
45730;SDS011;31440;48.584;13.460;2023-02-22T15:52:24;3.38;;;1.85;;
45730;SDS011;31440;48.584;13.460;2023-02-22T15:55:31;2.53;;;1.90;;
45730;SDS011;31440;48.584;13.460;2023-02-22T15:58:42;2.30;;;1.75;;
45730;SDS011;31440;48.584;13.460;2023-02-22T16:01:49;3.58;;;1.85;;
45730;SDS011;31440;48.584;13.460;2023-02-22T16:05:06;7.88;;;2.40;;
45730;SDS011;31440;48.584;13.460;2023-02-22T16:11:26;2.70;;;2.28;;
45730;SDS011;31440;48.584;13.460;2023-02-22T16:17:39;4.10;;;2.35;;
45730;SDS011;31440;48.584;13.460;2023-02-22T16:21:06;5.30;;;2.70;;
45730;SDS011;31440;48.584;13.460;2023-02-22T16:24:24;4.85;;;3.17;;
45730;SDS011;31440;48.584;13.460;2023-02-22T16:27:30;3.85;;;2.60;;
45730;SDS011;31440;48.584;13.460;2023-02-22T16:30:57;4.93;;;2.83;;
45730;SDS011;31440;48.584;13.460;2023-02-22T16:34:03;4.88;;;2.70;;
45730;SDS011;31440;48.584;13.460;2023-02-22T16:37:17;5.95;;;2.78;;
45730;SDS011;31440;48.584;13.460;2023-02-22T16:43:37;4.32;;;2.60;;
45730;SDS011;31440;48.584;13.460;2023-02-22T16:46:43;5.00;;;3.25;;
45730;SDS011;31440;48.584;13.460;2023-02-22T16:49:48;4.85;;;2.60;;
45730;SDS011;31440;48.584;13.460;2023-02-22T16:52:56;4.50;;;2.55;;
45730;SDS011;31440;48.584;13.460;2023-02-22T16:56:04;4.55;;;3.50;;
45730;SDS011;31440;48.584;13.460;2023-02-22T16:59:13;4.93;;;2.78;;
45730;SDS011;31440;48.584;13.460;2023-02-22T17:02:20;3.75;;;2.85;;
45730;SDS011;31440;48.584;13.460;2023-02-22T17:05:25;3.88;;;2.90;;
45730;SDS011;31440;48.584;13.460;2023-02-22T17:08:29;7.65;;;3.17;;
45730;SDS011;31440;48.584;13.460;2023-02-22T17:11:35;5.60;;;3.40;;
45730;SDS011;31440;48.584;13.460;2023-02-22T17:14:41;7.97;;;3.38;;
45730;SDS011;31440;48.584;13.460;2023-02-22T17:17:49;6.68;;;3.33;;
45730;SDS011;31440;48.584;13.460;2023-02-22T17:20:54;7.97;;;3.47;;
45730;SDS011;31440;48.584;13.460;2023-02-22T17:23:59;5.85;;;3.22;;
45730;SDS011;31440;48.584;13.460;2023-02-22T17:27:03;3.58;;;2.90;;
45730;SDS011;31440;48.584;13.460;2023-02-22T17:30:08;6.43;;;4.20;;
45730;SDS011;31440;48.584;13.460;2023-02-22T17:33:18;5.00;;;3.35;;
45730;SDS011;31440;48.584;13.460;2023-02-22T17:36:25;6.03;;;3.10;;
45730;SDS011;31440;48.584;13.460;2023-02-22T17:39:30;6.10;;;4.57;;
45730;SDS011;31440;48.584;13.460;2023-02-22T17:42:35;6.13;;;3.42;;
45730;SDS011;31440;48.584;13.460;2023-02-22T17:45:39;6.35;;;4.18;;
45730;SDS011;31440;48.584;13.460;2023-02-22T17:48:45;5.75;;;4.07;;
45730;SDS011;31440;48.584;13.460;2023-02-22T17:51:51;7.68;;;4.40;;
45730;SDS011;31440;48.584;13.460;2023-02-22T17:54:56;7.80;;;3.42;;
45730;SDS011;31440;48.584;13.460;2023-02-22T17:58:01;10.15;;;3.45;;
45730;SDS011;31440;48.584;13.460;2023-02-22T18:01:06;6.40;;;3.35;;
45730;SDS011;31440;48.584;13.460;2023-02-22T18:04:23;8.15;;;3.53;;
45730;SDS011;31440;48.584;13.460;2023-02-22T18:07:28;7.40;;;4.25;;
45730;SDS011;31440;48.584;13.460;2023-02-22T18:10:35;9.80;;;3.85;;
45730;SDS011;31440;48.584;13.460;2023-02-22T18:13:40;6.97;;;3.90;;
45730;SDS011;31440;48.584;13.460;2023-02-22T18:16:45;5.22;;;4.03;;
45730;SDS011;31440;48.584;13.460;2023-02-22T18:19:50;4.15;;;3.58;;
45730;SDS011;31440;48.584;13.460;2023-02-22T18:22:56;8.43;;;3.55;;
45730;SDS011;31440;48.584;13.460;2023-02-22T18:26:02;6.28;;;3.63;;
45730;SDS011;31440;48.584;13.460;2023-02-22T18:32:19;6.65;;;4.53;;
45730;SDS011;31440;48.584;13.460;2023-02-22T18:35:24;8.20;;;4.25;;
45730;SDS011;31440;48.584;13.460;2023-02-22T18:38:30;4.10;;;3.20;;
45730;SDS011;31440;48.584;13.460;2023-02-22T18:41:34;7.25;;;3.00;;
45730;SDS011;31440;48.584;13.460;2023-02-22T18:44:41;3.38;;;2.97;;
45730;SDS011;31440;48.584;13.460;2023-02-22T18:47:46;4.07;;;2.45;;
45730;SDS011;31440;48.584;13.460;2023-02-22T18:50:51;11.80;;;5.07;;
45730;SDS011;31440;48.584;13.460;2023-02-22T18:53:56;3.88;;;2.67;;
45730;SDS011;31440;48.584;13.460;2023-02-22T18:57:04;6.30;;;3.47;;
45730;SDS011;31440;48.584;13.460;2023-02-22T19:00:10;3.80;;;2.20;;
45730;SDS011;31440;48.584;13.460;2023-02-22T19:03:17;3.03;;;2.42;;
45730;SDS011;31440;48.584;13.460;2023-02-22T19:06:21;3.72;;;2.38;;
45730;SDS011;31440;48.584;13.460;2023-02-22T19:09:26;5.82;;;2.85;;
45730;SDS011;31440;48.584;13.460;2023-02-22T19:12:31;5.47;;;2.85;;
45730;SDS011;31440;48.584;13.460;2023-02-22T19:15:36;6.53;;;3.75;;
45730;SDS011;31440;48.584;13.460;2023-02-22T19:18:41;5.35;;;3.75;;
45730;SDS011;31440;48.584;13.460;2023-02-22T19:21:47;6.90;;;4.47;;
45730;SDS011;31440;48.584;13.460;2023-02-22T19:24:53;6.88;;;4.18;;
45730;SDS011;31440;48.584;13.460;2023-02-22T19:27:58;6.18;;;4.03;;
45730;SDS011;31440;48.584;13.460;2023-02-22T19:31:13;6.18;;;4.38;;
45730;SDS011;31440;48.584;13.460;2023-02-22T19:34:26;5.03;;;3.08;;
45730;SDS011;31440;48.584;13.460;2023-02-22T19:37:31;5.22;;;3.10;;
45730;SDS011;31440;48.584;13.460;2023-02-22T19:40:38;6.00;;;3.53;;
45730;SDS011;31440;48.584;13.460;2023-02-22T19:43:43;9.13;;;5.63;;
45730;SDS011;31440;48.584;13.460;2023-02-22T19:46:48;7.72;;;5.53;;
45730;SDS011;31440;48.584;13.460;2023-02-22T19:49:53;7.15;;;4.95;;
45730;SDS011;31440;48.584;13.460;2023-02-22T19:53:03;5.32;;;4.68;;
45730;SDS011;31440;48.584;13.460;2023-02-22T19:56:09;4.18;;;2.67;;
45730;SDS011;31440;48.584;13.460;2023-02-22T19:59:16;5.60;;;2.42;;
45730;SDS011;31440;48.584;13.460;2023-02-22T20:02:26;5.72;;;3.53;;
45730;SDS011;31440;48.584;13.460;2023-02-22T20:05:31;2.85;;;2.45;;
45730;SDS011;31440;48.584;13.460;2023-02-22T20:08:37;7.75;;;3.40;;
45730;SDS011;31440;48.584;13.460;2023-02-22T20:11:45;3.25;;;2.63;;
45730;SDS011;31440;48.584;13.460;2023-02-22T20:14:50;4.13;;;2.45;;